createdAt,value
2018-11-12T00:00:13.373Z,4.50
2018-11-12T00:02:42.091Z,4.80
2018-11-12T00:05:10.872Z,3.77
2018-11-12T00:07:39.648Z,4.20
2018-11-12T00:10:08.700Z,6.28
2018-11-12T00:12:37.604Z,9.33
2018-11-12T00:15:07.044Z,12.07
2018-11-12T00:17:35.807Z,11.10
2018-11-12T00:20:04.779Z,16.25
2018-11-12T00:22:33.544Z,11.43
2018-11-12T00:25:02.294Z,7.33
2018-11-12T00:27:31.071Z,5.28
2018-11-12T00:29:59.903Z,4.92
2018-11-12T00:32:28.736Z,5.33
2018-11-12T00:34:57.503Z,3.50
2018-11-12T00:37:26.253Z,4.17
2018-11-12T00:39:55.020Z,4.13
2018-11-12T00:42:23.789Z,3.72
2018-11-12T00:44:52.565Z,3.60
2018-11-12T00:47:21.384Z,4.87
2018-11-12T00:49:50.184Z,4.50
2018-11-12T00:52:19.020Z,3.83
2018-11-12T00:54:47.832Z,6.90
2018-11-12T00:57:16.623Z,5.30
2018-11-12T00:59:45.388Z,5.90
2018-11-12T01:02:14.144Z,3.85
2018-11-12T01:04:42.936Z,5.40
2018-11-12T01:07:11.679Z,5.15
2018-11-12T01:09:40.439Z,5.12
2018-11-12T01:12:09.195Z,6.42
2018-11-12T01:14:37.940Z,3.92
2018-11-12T01:17:06.708Z,4.25
2018-11-12T01:19:35.466Z,3.57
2018-11-12T01:22:04.209Z,3.80
2018-11-12T01:24:32.975Z,4.28
2018-11-12T01:27:01.722Z,7.37
2018-11-12T01:29:30.448Z,4.35
2018-11-12T01:31:59.187Z,3.52
2018-11-12T01:34:28.009Z,3.83
2018-11-12T01:36:56.741Z,2.65
2018-11-12T01:39:25.488Z,4.15
2018-11-12T01:41:54.236Z,5.23
2018-11-12T01:44:23.043Z,2.50
2018-11-12T01:46:51.748Z,4.17
2018-11-12T01:49:20.504Z,4.77
2018-11-12T01:51:49.313Z,4.25
2018-11-12T01:54:18.128Z,6.87
2018-11-12T01:56:46.828Z,4.42
2018-11-12T01:59:15.568Z,7.30
2018-11-12T02:01:44.367Z,5.25
2018-11-12T02:04:13.042Z,3.67
2018-11-12T02:06:41.807Z,2.65
2018-11-12T02:09:11.936Z,4.75
2018-11-12T02:11:40.951Z,4.03
2018-11-12T02:14:09.953Z,5.22
2018-11-12T02:16:38.707Z,5.33
2018-11-12T02:19:07.516Z,4.17
2018-11-12T02:21:36.343Z,4.72
2018-11-12T02:24:05.063Z,6.08
2018-11-12T02:26:33.836Z,4.20
2018-11-12T02:29:02.612Z,5.53
2018-11-12T02:31:31.376Z,3.33
2018-11-12T02:34:00.116Z,6.17
2018-11-12T02:36:28.953Z,5.45
2018-11-12T02:38:57.728Z,5.15
2018-11-12T02:41:26.500Z,5.90
2018-11-12T02:43:55.268Z,5.15
2018-11-12T02:46:24.060Z,4.53
2018-11-12T02:48:52.856Z,4.45
2018-11-12T02:51:21.675Z,4.58
2018-11-12T02:53:50.480Z,4.92
2018-11-12T02:56:19.324Z,4.37
2018-11-12T02:58:48.476Z,4.65
2018-11-12T03:01:21.772Z,3.70
2018-11-12T03:03:51.084Z,3.72
2018-11-12T03:06:20.103Z,3.55
2018-11-12T03:08:48.932Z,2.95
2018-11-12T03:11:17.973Z,4.78
2018-11-12T03:13:46.745Z,4.42
2018-11-12T03:16:15.475Z,4.60
2018-11-12T03:18:44.222Z,4.45
2018-11-12T03:21:13.026Z,4.22
2018-11-12T03:23:41.760Z,3.72
2018-11-12T03:26:10.560Z,3.98
2018-11-12T03:28:39.316Z,5.87
2018-11-12T03:31:08.040Z,4.22
2018-11-12T03:33:36.786Z,5.95
2018-11-12T03:36:05.827Z,4.28
2018-11-12T03:38:34.597Z,4.20
2018-11-12T03:41:03.307Z,3.27
2018-11-12T03:43:32.041Z,4.30
2018-11-12T03:46:00.791Z,4.92
2018-11-12T03:48:29.529Z,4.58
2018-11-12T03:50:58.276Z,4.05
2018-11-12T03:53:27.015Z,4.33
2018-11-12T03:55:55.783Z,5.35
2018-11-12T03:58:24.527Z,6.28
2018-11-12T04:00:53.308Z,5.90
2018-11-12T04:03:22.089Z,5.50
2018-11-12T04:05:50.860Z,5.27
2018-11-12T04:08:19.620Z,5.53
2018-11-12T04:10:48.413Z,6.95
2018-11-12T04:13:17.156Z,7.03
2018-11-12T04:15:45.943Z,5.03
2018-11-12T04:18:14.716Z,7.25
2018-11-12T04:20:43.475Z,6.93
2018-11-12T04:23:12.337Z,6.40
2018-11-12T04:25:41.352Z,6.75
2018-11-12T04:28:10.095Z,6.60
2018-11-12T04:30:38.809Z,5.07
2018-11-12T04:33:07.558Z,5.12
2018-11-12T04:35:36.276Z,6.25
2018-11-12T04:38:05.057Z,4.33
2018-11-12T04:40:33.796Z,4.47
2018-11-12T04:43:02.538Z,6.78
2018-11-12T04:45:31.291Z,4.28
2018-11-12T04:48:00.029Z,4.83
2018-11-12T04:50:29.240Z,4.25
2018-11-12T04:52:57.973Z,7.58
2018-11-12T04:55:26.844Z,6.67
2018-11-12T04:57:55.444Z,5.20
2018-11-12T05:00:25.474Z,4.37
2018-11-12T05:02:54.219Z,5.15
2018-11-12T05:05:24.194Z,4.35
2018-11-12T05:07:53.182Z,4.55
2018-11-12T05:10:24.269Z,5.53
2018-11-12T05:12:54.295Z,4.17
2018-11-12T05:15:24.003Z,4.85
2018-11-12T05:17:52.764Z,3.67
2018-11-12T05:20:24.669Z,3.92
2018-11-12T05:22:53.438Z,3.65
2018-11-12T05:25:22.228Z,5.03
2018-11-12T05:27:52.045Z,3.93
2018-11-12T05:30:23.876Z,7.40
2018-11-12T05:32:52.691Z,5.92
2018-11-12T05:35:22.819Z,6.35
2018-11-12T05:37:51.735Z,4.72
2018-11-12T05:40:21.674Z,3.23
2018-11-12T05:42:50.444Z,3.98
2018-11-12T05:45:20.364Z,4.53
2018-11-12T05:47:49.127Z,2.52
2018-11-12T05:50:19.116Z,3.10
2018-11-12T05:52:49.173Z,6.33
2018-11-12T05:55:19.216Z,3.00
2018-11-12T05:57:48.265Z,5.03
2018-11-12T06:00:20.350Z,3.92
2018-11-12T06:02:49.196Z,3.55
2018-11-12T06:05:18.021Z,5.65
2018-11-12T06:07:46.819Z,5.70
2018-11-12T06:10:17.206Z,5.42
2018-11-12T06:12:46.199Z,2.80
2018-11-12T06:15:15.188Z,3.87
2018-11-12T06:17:44.777Z,3.73
2018-11-12T06:20:19.459Z,5.08
2018-11-12T06:22:48.274Z,4.75
2018-11-12T06:25:18.445Z,7.42
2018-11-12T06:27:47.611Z,6.47
2018-11-12T06:30:17.691Z,5.10
2018-11-12T06:32:46.419Z,5.57
2018-11-12T06:35:15.567Z,4.58
2018-11-12T06:37:44.980Z,5.40
2018-11-12T06:40:16.031Z,6.17
2018-11-12T06:42:44.933Z,4.93
2018-11-12T06:45:15.659Z,6.12
2018-11-12T06:47:45.304Z,4.53
2018-11-12T06:50:16.237Z,5.47
2018-11-12T06:52:45.039Z,4.92
2018-11-12T06:55:14.583Z,3.30
2018-11-12T06:57:43.798Z,4.83
2018-11-12T07:00:14.940Z,3.22
2018-11-12T07:02:43.704Z,3.95
2018-11-12T07:05:12.831Z,6.40
2018-11-12T07:07:41.604Z,4.70
2018-11-12T07:10:12.698Z,4.00
2018-11-12T07:12:42.424Z,3.75
2018-11-12T07:15:27.100Z,5.23
2018-11-12T07:18:01.680Z,5.33
2018-11-12T07:20:45.352Z,3.33
2018-11-12T07:23:14.116Z,4.30
2018-11-12T07:25:42.871Z,4.20
2018-11-12T07:28:11.631Z,3.77
2018-11-12T07:30:40.483Z,6.00
2018-11-12T07:33:09.244Z,5.25
2018-11-12T07:35:37.987Z,4.05
2018-11-12T07:38:06.775Z,4.10
2018-11-12T07:40:35.556Z,5.35
2018-11-12T07:43:04.762Z,4.53
2018-11-12T07:45:33.552Z,3.75
2018-11-12T07:48:02.306Z,5.07
2018-11-12T07:50:31.448Z,3.37
2018-11-12T07:53:00.192Z,4.65
2018-11-12T07:55:29.421Z,6.08
2018-11-12T07:57:59.008Z,4.90
2018-11-12T08:00:30.306Z,4.47
2018-11-12T08:03:05.365Z,4.08
2018-11-12T08:05:34.363Z,5.12
2018-11-12T08:08:03.184Z,4.45
2018-11-12T08:10:31.966Z,5.42
2018-11-12T08:13:00.727Z,4.40
2018-11-12T08:15:29.469Z,5.03
2018-11-12T08:17:58.247Z,3.40
2018-11-12T08:20:27.320Z,5.30
2018-11-12T08:22:56.101Z,6.03
2018-11-12T08:25:24.860Z,3.05
2018-11-12T08:27:53.636Z,4.45
2018-11-12T08:30:24.843Z,4.85
2018-11-12T08:32:54.915Z,6.37
2018-11-12T08:35:23.640Z,5.37
2018-11-12T08:37:53.028Z,4.85
2018-11-12T08:40:23.092Z,7.03
2018-11-12T08:42:51.843Z,5.90
2018-11-12T08:45:20.637Z,5.83
2018-11-12T08:47:51.612Z,5.62
2018-11-12T08:50:22.403Z,6.05
2018-11-12T08:52:52.012Z,4.22
2018-11-12T08:55:22.146Z,6.65
2018-11-12T08:57:52.144Z,7.30
2018-11-12T09:00:21.903Z,5.97
2018-11-12T09:02:50.830Z,7.05
2018-11-12T09:05:20.752Z,6.65
2018-11-12T09:07:51.022Z,7.25
2018-11-12T09:10:21.848Z,5.42
2018-11-12T09:12:50.634Z,6.50
2018-11-12T09:15:19.462Z,5.97
2018-11-12T09:17:48.756Z,6.25
2018-11-12T09:20:19.712Z,7.17
2018-11-12T09:22:48.514Z,6.90
2018-11-12T09:25:18.480Z,9.20
2018-11-12T09:27:47.268Z,6.05
2018-11-12T09:30:17.999Z,5.80
2018-11-12T09:32:48.017Z,5.75
2018-11-12T09:35:18.004Z,5.83
2018-11-12T09:37:47.867Z,5.83
2018-11-12T09:40:19.337Z,6.28
2018-11-12T09:42:48.204Z,5.25
2018-11-12T09:45:16.984Z,6.83
2018-11-12T09:47:46.202Z,6.90
2018-11-12T09:50:16.064Z,8.05
2018-11-12T09:52:46.026Z,6.28
2018-11-12T09:55:15.509Z,6.80
2018-11-12T09:57:45.725Z,7.60
2018-11-12T10:00:16.026Z,8.33
2018-11-12T10:02:46.646Z,6.42
2018-11-12T10:05:16.244Z,6.57
2018-11-12T10:07:46.325Z,6.13
2018-11-12T10:10:24.720Z,7.53
2018-11-12T10:12:53.143Z,4.47
2018-11-12T10:15:22.167Z,7.42
2018-11-12T10:17:51.236Z,6.87
2018-11-12T10:20:17.322Z,6.78
2018-11-12T10:22:46.544Z,6.70
2018-11-12T10:25:15.280Z,6.40
2018-11-12T10:27:44.125Z,6.83
2018-11-12T10:30:12.876Z,6.67
2018-11-12T10:32:41.631Z,5.97
2018-11-12T10:35:10.720Z,7.10
2018-11-12T10:37:40.251Z,6.57
2018-11-12T10:40:12.772Z,5.47
2018-11-12T10:42:41.665Z,5.20
2018-11-12T10:45:10.045Z,5.50
2018-11-12T10:47:38.795Z,5.30
2018-11-12T10:50:07.636Z,8.77
2018-11-12T10:52:36.769Z,5.85
2018-11-12T10:55:08.416Z,5.20
2018-11-12T10:57:37.170Z,8.83
2018-11-12T11:00:14.587Z,8.33
2018-11-12T11:02:48.751Z,5.78
2018-11-12T11:05:17.535Z,6.35
2018-11-12T11:07:46.280Z,6.05
2018-11-12T11:10:15.027Z,6.58
2018-11-12T11:12:44.691Z,6.78
2018-11-12T11:15:13.847Z,7.35
2018-11-12T11:17:42.584Z,8.80
2018-11-12T11:20:11.352Z,6.90
2018-11-12T11:22:40.091Z,6.12
2018-11-12T11:25:08.840Z,8.07
2018-11-12T11:27:37.900Z,5.00
2018-11-12T11:30:08.804Z,8.30
2018-11-12T11:32:37.632Z,8.70
2018-11-12T11:35:07.552Z,7.28
2018-11-12T11:37:36.341Z,8.23
2018-11-12T11:40:11.689Z,9.33
2018-11-12T11:42:40.568Z,7.40
2018-11-12T11:45:10.391Z,8.13
2018-11-12T11:47:39.794Z,8.13
2018-11-12T11:50:09.967Z,6.00
2018-11-12T11:52:38.632Z,7.50
2018-11-12T11:55:09.016Z,6.80
2018-11-12T11:57:38.055Z,7.92
2018-11-12T12:00:11.363Z,7.50
2018-11-12T12:02:40.312Z,9.08
2018-11-12T12:05:10.292Z,7.33
2018-11-12T12:07:39.140Z,12.63
2018-11-12T12:10:08.629Z,11.38
2018-11-12T12:12:37.453Z,8.75
2018-11-12T12:15:07.843Z,9.77
2018-11-12T12:17:36.880Z,7.30
2018-11-12T12:20:08.555Z,5.73
2018-11-12T12:22:37.308Z,8.28
2018-11-12T12:25:06.881Z,7.80
2018-11-12T12:27:35.616Z,8.73
2018-11-12T12:30:05.662Z,5.90
2018-11-12T12:32:34.465Z,7.53
2018-11-12T12:35:03.187Z,7.83
2018-11-12T12:37:32.000Z,5.67
2018-11-12T12:40:00.704Z,9.40
2018-11-12T12:42:29.496Z,7.80
2018-11-12T12:44:58.336Z,7.28
2018-11-12T12:47:27.025Z,6.58
2018-11-12T12:49:55.799Z,7.67
2018-11-12T12:52:24.556Z,8.58
2018-11-12T12:54:53.327Z,8.57
2018-11-12T12:57:22.146Z,6.62
2018-11-12T12:59:50.993Z,7.65
2018-11-12T13:02:19.782Z,9.55
2018-11-12T13:04:48.704Z,8.73
2018-11-12T13:07:17.497Z,6.83
2018-11-12T13:09:46.213Z,5.37
2018-11-12T13:12:14.979Z,7.40
2018-11-12T13:14:43.888Z,9.88
2018-11-12T13:17:12.583Z,8.75
2018-11-12T13:19:41.369Z,6.43
2018-11-12T13:22:10.140Z,6.85
2018-11-12T13:24:38.916Z,6.40
2018-11-12T13:27:07.738Z,8.48
2018-11-12T13:29:36.593Z,7.53
2018-11-12T13:32:05.340Z,9.97
2018-11-12T13:34:34.127Z,6.62
2018-11-12T13:37:02.904Z,7.92
2018-11-12T13:39:31.758Z,6.30
2018-11-12T13:42:00.443Z,10.88
2018-11-12T13:44:29.224Z,8.57
2018-11-12T13:46:58.834Z,8.58
2018-11-12T13:49:27.616Z,10.53
2018-11-12T13:51:56.399Z,11.08
2018-11-12T13:54:25.175Z,13.00
2018-11-12T13:56:53.959Z,11.08
2018-11-12T13:59:22.727Z,14.45
2018-11-12T14:01:51.488Z,19.02
2018-11-12T14:04:20.276Z,20.82
2018-11-12T14:06:49.020Z,23.87
2018-11-12T14:09:17.865Z,23.98
2018-11-12T14:11:46.649Z,23.80
2018-11-12T14:14:15.426Z,24.43
2018-11-12T14:16:44.174Z,22.98
2018-11-12T14:19:12.909Z,22.90
2018-11-12T14:21:41.905Z,21.97
2018-11-12T14:24:10.388Z,21.27
2018-11-12T14:26:39.119Z,21.90
2018-11-12T14:29:08.328Z,18.80
2018-11-12T14:31:37.053Z,18.60
2018-11-12T14:34:05.820Z,17.52
2018-11-12T14:36:34.672Z,15.75
2018-11-12T14:39:04.476Z,15.60
2018-11-12T14:41:33.200Z,14.13
2018-11-12T14:44:01.974Z,16.37
2018-11-12T14:46:30.715Z,15.27
2018-11-12T14:48:59.464Z,14.83
2018-11-12T14:51:28.220Z,9.90
2018-11-12T14:53:56.964Z,11.90
2018-11-12T14:56:25.712Z,10.68
2018-11-12T14:58:54.476Z,9.33
2018-11-12T15:01:23.263Z,10.95
2018-11-12T15:03:52.080Z,11.08
2018-11-12T15:06:20.856Z,11.35
2018-11-12T15:08:49.667Z,9.98
2018-11-12T15:11:18.400Z,10.40
2018-11-12T15:13:47.187Z,11.53
2018-11-12T15:16:15.955Z,11.18
2018-11-12T15:18:44.715Z,11.57
2018-11-12T15:21:13.550Z,10.78
2018-11-12T15:23:42.279Z,10.75
2018-11-12T15:26:11.031Z,10.55
2018-11-12T15:28:39.812Z,11.28
2018-11-12T15:31:08.573Z,11.63
2018-11-12T15:33:37.356Z,11.05
2018-11-12T15:36:06.228Z,11.18
2018-11-12T15:38:35.024Z,11.53
2018-11-12T15:41:03.813Z,11.20
2018-11-12T15:43:32.570Z,11.60
2018-11-12T15:46:01.329Z,11.15
2018-11-12T15:48:30.104Z,10.93
2018-11-12T15:50:58.939Z,11.10
2018-11-12T15:53:27.673Z,10.98
2018-11-12T15:55:56.447Z,11.20
2018-11-12T15:58:25.288Z,10.70
2018-11-12T16:00:53.983Z,10.58
2018-11-12T16:03:22.740Z,11.35
2018-11-12T16:05:51.531Z,10.90
2018-11-12T16:08:20.496Z,11.30
2018-11-12T16:10:49.266Z,11.83
2018-11-12T16:13:18.004Z,10.87
2018-11-12T16:15:46.744Z,11.40
2018-11-12T16:18:15.477Z,12.15
2018-11-12T16:20:44.224Z,11.33
2018-11-12T16:23:13.156Z,11.20
2018-11-12T16:25:41.941Z,11.35
2018-11-12T16:28:10.679Z,10.72
2018-11-12T16:30:39.525Z,10.82
2018-11-12T16:33:08.256Z,11.15
2018-11-12T16:35:36.999Z,11.75
2018-11-12T16:38:06.015Z,11.43
2018-11-12T16:40:34.767Z,11.53
2018-11-12T16:43:03.508Z,13.03
2018-11-12T16:45:32.252Z,12.07
2018-11-12T16:48:01.082Z,11.15
2018-11-12T16:50:29.897Z,11.45
2018-11-12T16:52:58.660Z,11.22
2018-11-12T16:55:27.436Z,11.93
2018-11-12T16:57:56.200Z,12.35
2018-11-12T17:00:25.332Z,13.20
2018-11-12T17:02:54.089Z,13.35
2018-11-12T17:05:24.065Z,13.33
2018-11-12T17:07:52.832Z,13.83
2018-11-12T17:10:22.990Z,13.48
2018-11-12T17:12:51.836Z,13.38
2018-11-12T17:15:20.663Z,14.13
2018-11-12T17:17:49.741Z,14.23
2018-11-12T17:20:19.662Z,14.60
2018-11-12T17:22:48.487Z,15.20
2018-11-12T17:25:17.553Z,15.18
2018-11-12T17:27:46.745Z,16.10
2018-11-12T17:30:18.565Z,16.45
2018-11-12T17:32:47.702Z,16.93
2018-11-12T17:35:17.554Z,17.20
2018-11-12T17:37:46.311Z,17.27
2018-11-12T17:40:16.912Z,17.25
2018-11-12T17:42:46.733Z,17.03
2018-11-12T17:45:16.787Z,18.23
2018-11-12T17:47:46.811Z,17.92
2018-11-12T17:50:15.620Z,18.87
2018-11-12T17:52:44.414Z,20.32
2018-11-12T17:55:13.444Z,20.12
2018-11-12T17:57:42.214Z,20.45
2018-11-12T18:00:22.256Z,20.85
2018-11-12T18:02:51.048Z,20.70
2018-11-12T18:05:19.807Z,19.87
2018-11-12T18:07:48.669Z,20.48
2018-11-12T18:10:17.968Z,21.48
2018-11-12T18:12:46.755Z,21.35
2018-11-12T18:15:16.864Z,21.35
2018-11-12T18:17:45.624Z,21.17
2018-11-12T18:20:16.159Z,21.37
2018-11-12T18:22:44.997Z,22.10
2018-11-12T18:25:14.315Z,22.58
2018-11-12T18:27:43.118Z,22.37
2018-11-12T18:30:16.139Z,21.27
2018-11-12T18:32:45.612Z,22.85
2018-11-12T18:35:14.396Z,21.80
2018-11-12T18:37:43.154Z,21.15
2018-11-12T18:40:13.606Z,21.77
2018-11-12T18:42:42.456Z,21.77
2018-11-12T18:45:14.625Z,21.15
2018-11-12T18:47:43.608Z,23.12
2018-11-12T18:50:17.615Z,21.40
2018-11-12T18:52:46.669Z,24.03
2018-11-12T18:55:15.473Z,22.30
2018-11-12T18:57:44.877Z,21.95
2018-11-12T19:00:15.183Z,22.05
2018-11-12T19:02:43.980Z,21.95
2018-11-12T19:05:14.595Z,22.40
2018-11-12T19:07:44.260Z,22.70
2018-11-12T19:10:14.740Z,22.07
2018-11-12T19:12:44.320Z,21.30
2018-11-12T19:15:14.243Z,23.38
2018-11-12T19:17:44.049Z,22.07
2018-11-12T19:20:13.444Z,22.17
2018-11-12T19:22:42.244Z,21.97
2018-11-12T19:25:12.007Z,23.40
2018-11-12T19:27:41.115Z,23.35
2018-11-12T19:30:12.803Z,24.23
2018-11-12T19:32:41.740Z,22.67
2018-11-12T19:35:12.025Z,21.83
2018-11-12T19:37:40.812Z,21.70
2018-11-12T19:40:12.140Z,22.00
2018-11-12T19:42:40.888Z,21.30
2018-11-12T19:45:10.929Z,21.68
2018-11-12T19:47:39.742Z,21.52
2018-11-12T19:50:10.789Z,21.85
2018-11-12T19:52:39.993Z,20.62
2018-11-12T19:55:08.791Z,21.55
2018-11-12T19:57:37.577Z,23.38
2018-11-12T20:00:11.908Z,22.30
2018-11-12T20:02:41.543Z,21.50
2018-11-12T20:05:10.452Z,21.77
2018-11-12T20:07:39.660Z,21.52
2018-11-12T20:10:11.582Z,22.70
2018-11-12T20:12:40.408Z,21.57
2018-11-12T20:15:10.167Z,22.87
2018-11-12T20:17:39.320Z,22.32
2018-11-12T20:20:10.271Z,24.15
2018-11-12T20:22:39.251Z,21.37
2018-11-12T20:25:08.660Z,22.15
2018-11-12T20:27:37.474Z,23.57
2018-11-12T20:30:09.452Z,21.35
2018-11-12T20:32:38.377Z,21.65
2018-11-12T20:35:07.528Z,20.75
2018-11-12T20:37:36.471Z,20.85
2018-11-12T20:40:06.021Z,20.95
2018-11-12T20:42:35.052Z,19.73
2018-11-12T20:45:03.953Z,20.12
2018-11-12T20:47:32.685Z,20.15
2018-11-12T20:50:01.456Z,20.37
2018-11-12T20:52:30.287Z,21.12
2018-11-12T20:54:59.023Z,20.27
2018-11-12T20:57:27.799Z,21.33
2018-11-12T20:59:56.571Z,22.32
2018-11-12T21:02:25.938Z,22.20
2018-11-12T21:04:54.776Z,20.82
2018-11-12T21:07:23.660Z,20.52
2018-11-12T21:09:52.400Z,21.45
2018-11-12T21:12:21.196Z,20.95
2018-11-12T21:14:50.064Z,20.57
2018-11-12T21:17:18.808Z,21.60
2018-11-12T21:19:47.773Z,22.25
2018-11-12T21:22:16.593Z,22.98
2018-11-12T21:24:45.345Z,23.85
2018-11-12T21:27:14.144Z,21.40
2018-11-12T21:29:42.922Z,21.95
2018-11-12T21:32:11.712Z,22.22
2018-11-12T21:34:40.469Z,21.23
2018-11-12T21:37:09.264Z,23.00
2018-11-12T21:39:37.940Z,22.87
2018-11-12T21:42:06.772Z,23.53
2018-11-12T21:44:35.516Z,23.95
2018-11-12T21:47:04.275Z,23.22
2018-11-12T21:49:33.099Z,23.67
2018-11-12T21:52:01.776Z,23.98
2018-11-12T21:54:30.530Z,27.35
2018-11-12T21:56:59.383Z,27.23
2018-11-12T21:59:28.178Z,24.10
2018-11-12T22:01:56.990Z,24.60
2018-11-12T22:04:25.788Z,23.22
2018-11-12T22:06:54.557Z,23.47
2018-11-12T22:09:23.338Z,24.77
2018-11-12T22:11:52.051Z,24.77
2018-11-12T22:14:20.845Z,26.90
2018-11-12T22:16:49.595Z,32.25
2018-11-12T22:19:18.424Z,33.18
2018-11-12T22:21:47.220Z,33.50
2018-11-12T22:24:15.999Z,32.28
2018-11-12T22:26:44.759Z,29.18
2018-11-12T22:29:13.542Z,31.53
2018-11-12T22:31:42.310Z,25.80
2018-11-12T22:34:11.085Z,25.92
2018-11-12T22:36:39.962Z,26.63
2018-11-12T22:39:09.633Z,28.52
2018-11-12T22:41:38.414Z,29.15
2018-11-12T22:44:08.203Z,29.83
2018-11-12T22:46:36.961Z,34.67
2018-11-12T22:49:05.798Z,27.87
2018-11-12T22:51:34.575Z,29.48
2018-11-12T22:54:03.397Z,30.85
2018-11-12T22:56:32.124Z,33.40
2018-11-12T22:59:00.892Z,39.30
2018-11-12T23:01:29.772Z,37.77
2018-11-12T23:03:58.596Z,35.85
2018-11-12T23:06:27.377Z,35.28
2018-11-12T23:11:56.571Z,34.05
2018-11-12T23:14:25.437Z,32.55
2018-11-12T23:16:54.249Z,32.05
2018-11-12T23:19:36.930Z,28.77
2018-11-12T23:22:05.790Z,33.38
2018-11-12T23:24:34.668Z,29.30
2018-11-12T23:27:03.552Z,28.87
2018-11-12T23:29:32.780Z,28.75
2018-11-12T23:32:01.757Z,30.12
2018-11-12T23:34:30.645Z,30.72
2018-11-12T23:36:59.528Z,30.20
2018-11-12T23:39:28.461Z,31.68
2018-11-12T23:41:57.346Z,30.68
2018-11-12T23:44:26.220Z,30.90
2018-11-12T23:46:55.398Z,32.90
2018-11-12T23:49:24.221Z,34.00
2018-11-12T23:51:53.085Z,39.23
2018-11-12T23:54:21.997Z,36.85
2018-11-12T23:56:50.878Z,35.68
2018-11-12T23:59:20.063Z,32.63
